Ann Arbor, Michigan
Current Conditions -  °F | °C
As of 10:53 AM on Wednesday 26 Nov 2014 (Local Time) from KARB Reporting Station
Overcast Overcast  
Wind Chill: 31°   Ceiling: 3400
Heat Index: 31°   Visibility: 10mi
Dew Point: 23°   Wind: 0mph
Humidity: 72%   Direction: NA
Pressure: 30.16"   Gusts: NA
Location:  42.28°N, 83.75°W
Report Text: KARB 261553Z 00000KT 10SM SCT018 OVC034 M01/M05 A3016 RMK AO2 SLP222 T10061050
Loading
Personal Weather Stations






























Interactive Weather Map New forecast layout! Learn more

10-Day Weather Forecast

Advertisements
Track Severe Weather on mobile